weather.gov     
National Weather Service

Terminal Aerodrome Forecast
NWS Homepage
This page is being discontinued on March 12, 2014.
The same data is available at this site. Please update your bookmarks.
Thank you, and we apologize for the inconvenience.
Please send an email to SR-SRH.Webmaster@noaa.gov with any concerns.


Current Version
Previous Version:    01  02  03  04  05  06  07  08  09  10  11  12  13  14  15  16  17  18  19  20  21  22  23  24  25  26  27  28  29  
[Printable]
934
FTUS43 KILX 221100
TAFSPI
TAF
KSPI 221140Z 2212/2312 15012KT P6SM VCSH OVC035
     FM221300 13014KT 6SM -RA HZ SCT012 OVC030
     FM221600 13014KT 3SM -RA BR OVC007
     FM221800 15014G19KT 1 1/2SM -RA BR OVC004
     FM230200 13014KT 4SM -RA BR OVC006=


U.S. Dept. of Commerce
NOAA National Weather Service
1325 East West Highway
Silver Spring, MD 20910
E-mail: w-nws.webmaster@noaa.gov
Page last modified: May 16, 2007
NATIONAL WEATHER SERVICE: for Safety, for Work, for Fun - FOR LIFE